Time;durP1;ratioP1;P1;durP2;ratioP2;P2;SDS_P1;SDS_P2;PMS_P1;PMS_P2;Temp;Humidity;BMP_temperature;BMP_pressure;BME280_temperature;BME280_humidity;BME280_pressure;Samples;Min_cycle;Max_cycle;Signal;HPM_P1;HPM_P2
2024/04/14 00:00:45;;;;;;;10.03;3.53;;;12.90;99.90;;;13.56;69.79;97395.00;2360984;56;26204;-76
2024/04/14 00:03:13;;;;;;;6.87;3.47;;;12.60;99.90;;;13.20;70.57;97398.00;2361954;56;26184;-76
2024/04/14 00:05:40;;;;;;;6.67;3.30;;;12.30;99.90;;;12.99;71.31;97399.00;2362152;56;26707;-76
2024/04/14 00:08:06;;;;;;;6.03;3.67;;;12.20;99.90;;;12.84;72.05;97399.00;2361952;56;26171;-77
2024/04/14 00:10:33;;;;;;;8.47;3.60;;;12.20;99.90;;;12.86;72.45;97399.00;2360919;56;26156;-78
2024/04/14 00:13:00;;;;;;;7.73;3.20;;;12.20;99.90;;;12.80;72.04;97396.00;2361500;56;26816;-77
2024/04/14 00:15:26;;;;;;;5.97;3.13;;;12.20;99.90;;;12.87;72.24;97390.00;2360721;56;26206;-76
2024/04/14 00:17:53;;;;;;;8.50;3.57;;;12.30;99.90;;;12.93;72.13;97387.00;2360861;56;26380;-77
2024/04/14 00:20:22;;;;;;;4.63;2.87;;;12.40;99.90;;;12.99;71.96;97383.00;2361579;56;26172;-77
2024/04/14 00:22:49;;;;;;;3.57;2.43;;;12.40;99.90;;;12.92;72.15;97383.00;2361092;56;26652;-77
2024/04/14 00:25:16;;;;;;;9.87;3.73;;;12.40;99.90;;;12.95;72.09;97378.00;2361477;56;26200;-75
2024/04/14 00:27:43;;;;;;;5.50;2.87;;;12.40;99.90;;;13.04;71.88;97384.00;2360899;56;27217;-75
2024/04/14 00:30:11;;;;;;;5.83;3.43;;;12.40;99.90;;;13.07;71.69;97383.00;2361471;56;27225;-78
2024/04/14 00:32:39;;;;;;;5.83;3.23;;;12.30;99.90;;;12.98;71.86;97376.00;2361141;56;26243;-77
2024/04/14 00:35:06;;;;;;;7.70;3.53;;;12.20;99.90;;;12.83;71.90;97369.00;2361701;56;26191;-78
2024/04/14 00:37:32;;;;;;;6.87;3.43;;;12.00;99.90;;;12.69;72.70;97379.00;2360903;56;26212;-75
2024/04/14 00:39:59;;;;;;;5.33;3.33;;;12.00;99.90;;;12.66;72.51;97369.00;2361514;56;26803;-75
2024/04/14 00:42:25;;;;;;;5.57;3.07;;;11.90;99.90;;;12.55;72.68;97369.00;2361197;56;26188;-74
2024/04/14 00:44:52;;;;;;;8.13;3.30;;;11.80;99.90;;;12.45;72.47;97374.00;2361042;56;26403;-78
2024/04/14 00:47:19;;;;;;;6.43;3.40;;;11.70;99.90;;;12.26;73.58;97371.00;2361331;56;26053;-76
2024/04/14 00:49:45;;;;;;;7.70;3.60;;;11.70;99.90;;;12.30;73.34;97370.00;2361201;56;26220;-75
2024/04/14 00:52:12;;;;;;;9.53;3.87;;;11.70;99.90;;;12.38;73.36;97371.00;2361664;56;26194;-76
2024/04/14 00:54:39;;;;;;;6.03;3.17;;;11.50;99.90;;;12.18;74.14;97363.00;2361397;56;26209;-75
2024/04/14 00:57:08;;;;;;;8.70;3.50;;;11.50;99.90;;;12.21;74.33;97366.00;2361906;56;26669;-75
2024/04/14 00:59:36;;;;;;;6.27;3.40;;;11.50;99.90;;;12.04;74.34;97366.00;2361614;56;26768;-77
2024/04/14 01:02:03;;;;;;;6.10;3.50;;;11.30;99.90;;;12.00;74.57;97367.00;2362196;56;26136;-75
2024/04/14 01:04:33;;;;;;;6.67;3.23;;;11.30;99.90;;;12.04;75.39;97371.00;2361490;56;26145;-77
2024/04/14 01:07:00;;;;;;;7.77;3.73;;;11.40;99.90;;;11.99;75.13;97362.00;2361773;56;26597;-76
2024/04/14 01:09:27;;;;;;;8.63;3.60;;;11.30;99.90;;;11.89;75.18;97362.00;2361138;56;26112;-77
2024/04/14 01:11:53;;;;;;;6.70;3.83;;;11.20;99.90;;;11.91;74.66;97355.00;2361776;56;26196;-76
2024/04/14 01:14:22;;;;;;;6.73;3.17;;;11.10;99.90;;;11.68;75.74;97360.00;2361612;56;26172;-77
2024/04/14 01:16:49;;;;;;;7.40;3.40;;;10.90;99.90;;;11.56;74.80;97360.00;2361430;56;26097;-75
2024/04/14 01:19:15;;;;;;;8.57;3.60;;;10.80;99.90;;;11.33;74.62;97358.00;2361663;56;26184;-78
2024/04/14 01:21:42;;;;;;;6.73;3.33;;;10.70;99.90;;;11.27;75.45;97358.00;2361215;56;26176;-75
2024/04/14 01:24:08;;;;;;;5.27;3.37;;;10.70;99.90;;;11.21;77.45;97361.00;2361696;56;26113;-74
2024/04/14 01:26:35;;;;;;;7.40;3.43;;;10.70;99.90;;;11.05;77.45;97354.00;2360974;56;26686;-76
2024/04/14 01:29:02;;;;;;;6.60;3.40;;;10.70;99.90;;;11.27;77.22;97348.00;2361224;56;26129;-75
2024/04/14 01:31:29;;;;;;;8.47;3.57;;;10.80;99.90;;;11.26;76.32;97342.00;2361289;56;26149;-74
2024/04/14 01:33:56;;;;;;;6.77;3.40;;;10.80;99.90;;;11.41;75.56;97350.00;2361918;56;26484;-78
2024/04/14 01:36:22;;;;;;;9.93;3.40;;;10.80;99.90;;;11.32;76.50;97346.00;2362800;56;26073;-76
2024/04/14 01:38:49;;;;;;;7.10;3.47;;;10.70;99.90;;;11.32;75.08;97345.00;2361613;56;26136;-74
2024/04/14 01:41:16;;;;;;;7.83;3.70;;;10.60;99.90;;;11.18;75.96;97345.00;2361784;56;26225;-75
2024/04/14 01:43:42;;;;;;;7.27;3.33;;;10.60;99.90;;;11.12;75.11;97346.00;2358559;56;26156;-79
2024/04/14 01:46:09;;;;;;;5.73;2.77;;;10.40;99.90;;;10.97;75.75;97338.00;2361609;56;26101;-77
2024/04/14 01:48:35;;;;;;;7.43;3.40;;;10.30;99.90;;;10.89;76.36;97339.00;2361194;56;26145;-78
2024/04/14 01:51:03;;;;;;;7.27;3.47;;;10.20;99.90;;;10.78;76.09;97334.00;2361220;56;26172;-79
2024/04/14 01:53:29;;;;;;;6.27;3.60;;;10.20;99.90;;;10.80;76.95;97337.00;2360488;56;26267;-79
2024/04/14 01:55:56;;;;;;;4.87;2.87;;;10.30;99.90;;;10.84;76.83;97336.00;2360324;56;26117;-79
2024/04/14 01:58:22;;;;;;;6.27;3.30;;;10.00;99.90;;;10.70;75.89;97335.00;2361370;56;26164;-78
2024/04/14 02:00:49;;;;;;;6.80;3.33;;;9.90;99.90;;;10.55;76.73;97327.00;2360762;56;26260;-77
2024/04/14 02:03:16;;;;;;;7.20;3.13;;;10.00;99.90;;;10.63;77.16;97333.00;2360333;56;26153;-77
2024/04/14 02:05:42;;;;;;;4.73;2.83;;;10.00;99.90;;;10.46;76.26;97331.00;2360739;56;26129;-79
2024/04/14 02:08:09;;;;;;;11.50;3.47;;;9.90;99.90;;;10.38;76.63;97324.00;2361170;56;26160;-79
2024/04/14 02:10:41;;;;;;;5.23;2.90;;;9.90;99.90;;;10.37;76.95;97332.00;2361282;56;26558;-76
2024/04/14 02:13:08;;;;;;;7.27;3.10;;;9.90;99.90;;;10.41;76.57;97322.00;2362108;56;26164;-77
2024/04/14 02:15:35;;;;;;;6.33;2.83;;;9.90;99.90;;;10.37;76.27;97325.00;2361493;56;26569;-74
2024/04/14 02:18:01;;;;;;;4.97;3.03;;;9.80;99.90;;;10.26;77.54;97326.00;2361283;56;26649;-75
2024/04/14 02:20:28;;;;;;;10.70;3.23;;;9.90;99.90;;;10.53;78.18;97336.00;2360850;56;26145;-77
2024/04/14 02:22:55;;;;;;;5.33;3.07;;;10.00;99.90;;;10.38;76.93;97323.00;2360988;56;26220;-75
2024/04/14 02:25:21;;;;;;;6.30;3.37;;;10.00;99.90;;;10.56;75.45;97318.00;2361318;56;26180;-77
2024/04/14 02:27:48;;;;;;;6.20;3.27;;;9.90;99.90;;;10.51;75.22;97318.00;2361306;56;26704;-76
2024/04/14 02:30:14;;;;;;;5.97;3.50;;;9.60;99.90;;;10.26;75.26;97314.00;2361788;56;26092;-75
2024/04/14 02:32:41;;;;;;;5.00;2.67;;;9.50;99.90;;;10.04;76.47;97312.00;2360711;56;26299;-76
2024/04/14 02:35:08;;;;;;;5.47;2.83;;;9.70;99.90;;;10.19;78.37;97311.00;2361796;56;26093;-77
2024/04/14 02:37:35;;;;;;;5.03;2.80;;;9.60;99.90;;;10.13;75.35;97321.00;2361104;56;26879;-76
2024/04/14 02:40:02;;;;;;;6.37;2.97;;;9.50;99.90;;;9.97;75.91;97313.00;2361365;56;26144;-75
2024/04/14 02:42:34;;;;;;;8.23;3.00;;;9.40;99.90;;;9.95;77.61;97313.00;2360829;56;26260;-75
2024/04/14 02:45:01;;;;;;;5.13;3.03;;;9.50;99.90;;;9.99;78.18;97314.00;2361045;56;26180;-76
2024/04/14 02:47:29;;;;;;;5.83;3.00;;;9.40;99.90;;;9.90;77.76;97310.00;2360861;56;26165;-75
2024/04/14 02:49:55;;;;;;;5.70;2.83;;;9.50;99.90;;;9.84;78.56;97312.00;2361357;56;26133;-76
2024/04/14 02:52:22;;;;;;;6.17;2.77;;;9.50;99.90;;;9.82;77.79;97315.00;2361109;56;26117;-76
2024/04/14 02:54:49;;;;;;;4.43;2.80;;;9.40;99.90;;;9.88;76.94;97313.00;2360825;56;26125;-77
2024/04/14 02:57:16;;;;;;;6.97;2.53;;;9.30;99.90;;;9.76;77.00;97307.00;2360896;56;26173;-75
2024/04/14 02:59:43;;;;;;;7.87;3.17;;;9.30;99.90;;;9.83;76.73;97307.00;2360593;56;26152;-76
2024/04/14 03:02:09;;;;;;;6.73;3.20;;;9.30;99.90;;;9.76;76.85;97304.00;2360847;56;26156;-77
2024/04/14 03:04:36;;;;;;;5.13;2.67;;;9.30;99.90;;;9.76;77.58;97304.00;2360596;56;26267;-77
2024/04/14 03:07:03;;;;;;;7.30;3.40;;;9.50;99.90;;;10.05;78.77;97297.00;2360827;56;26409;-77
2024/04/14 03:09:29;;;;;;;7.27;3.37;;;9.80;99.90;;;10.38;76.29;97308.00;2360589;56;26155;-76
2024/04/14 03:11:56;;;;;;;5.23;2.83;;;9.50;99.90;;;10.01;75.32;97294.00;2361063;56;26201;-75
2024/04/14 03:14:22;;;;;;;6.77;3.37;;;9.50;99.90;;;9.86;76.55;97296.00;2361041;56;26725;-77
2024/04/14 03:16:49;;;;;;;4.20;2.30;;;9.40;99.90;;;9.72;74.93;97300.00;2361079;56;26109;-77
2024/04/14 03:19:15;;;;;;;5.27;2.27;;;9.20;99.90;;;9.73;74.97;97304.00;2361624;56;26692;-76
2024/04/14 03:21:42;;;;;;;5.60;3.00;;;9.20;99.90;;;9.64;75.64;97291.00;2361315;56;26164;-77
2024/04/14 03:24:09;;;;;;;4.17;2.70;;;9.20;99.90;;;9.59;76.81;97290.00;2361282;56;26180;-77
2024/04/14 03:26:35;;;;;;;6.30;3.20;;;9.20;99.90;;;9.60;76.08;97289.00;2361250;56;26168;-77
2024/04/14 03:29:02;;;;;;;7.20;3.03;;;9.30;99.90;;;9.73;77.32;97294.00;2361251;56;26149;-77
2024/04/14 03:31:28;;;;;;;4.97;2.90;;;9.30;99.90;;;9.77;76.65;97279.00;2360973;56;26605;-77
2024/04/14 03:33:55;;;;;;;5.03;2.87;;;9.20;99.90;;;9.68;77.89;97280.00;2361416;56;26125;-75
2024/04/14 03:36:22;;;;;;;5.97;3.10;;;9.20;99.90;;;9.60;77.50;97279.00;2361458;56;26534;-76
2024/04/14 03:38:48;;;;;;;6.77;3.30;;;9.10;99.90;;;9.43;78.20;97277.00;2361091;56;26403;-77
2024/04/14 03:41:16;;;;;;;3.53;2.37;;;9.00;99.90;;;9.53;77.95;97278.00;2361233;56;26263;-77
2024/04/14 03:43:42;;;;;;;4.80;2.83;;;9.10;99.90;;;9.63;77.19;97273.00;2361379;56;26164;-75
2024/04/14 03:46:10;;;;;;;5.70;2.93;;;9.10;99.90;;;9.62;77.01;97278.00;2361828;56;26145;-77
2024/04/14 03:48:36;;;;;;;6.40;3.00;;;9.10;99.90;;;9.50;75.24;97271.00;2361211;56;26160;-76
2024/04/14 03:51:04;;;;;;;7.17;2.77;;;8.80;99.90;;;9.37;75.41;97281.00;2361781;56;26149;-77
2024/04/14 03:53:30;;;;;;;3.50;1.70;;;8.70;99.90;;;9.22;75.17;97267.00;2361118;56;26794;-76
2024/04/14 03:55:57;;;;;;;4.87;1.80;;;8.70;99.90;;;9.23;78.20;97265.00;2361460;56;26113;-77
2024/04/14 03:58:23;;;;;;;6.20;3.00;;;9.20;99.90;;;9.64;78.58;97272.00;2361325;56;26142;-75
2024/04/14 04:00:50;;;;;;;9.23;3.10;;;9.40;99.90;;;9.69;76.65;97271.00;2361144;56;26209;-77
2024/04/14 04:03:17;;;;;;;5.40;3.00;;;9.30;99.90;;;9.65;77.11;97268.00;2361385;56;26148;-75
2024/04/14 04:05:54;;;;;;;3.83;2.37;;;9.30;99.90;;;9.69;76.89;97279.00;2361397;56;26499;-76
2024/04/14 04:08:24;;;;;;;4.23;2.07;;;9.20;99.90;;;9.60;76.76;97279.00;2361243;56;26245;-74
2024/04/14 04:11:04;;;;;;;4.97;2.33;;;9.60;99.90;;;10.06;76.88;97280.00;2361009;56;27235;-74
2024/04/14 04:13:34;;;;;;;7.93;2.30;;;10.00;99.90;;;10.35;75.76;97276.00;2362270;56;26117;-74
2024/04/14 04:16:04;;;;;;;5.00;2.37;;;10.20;99.90;;;10.60;74.67;97271.00;2361742;56;26705;-75
2024/04/14 04:18:31;;;;;;;6.93;2.87;;;10.20;99.90;;;10.66;73.82;97266.00;2360743;56;26498;-76
2024/04/14 04:21:00;;;;;;;4.77;2.73;;;9.90;99.90;;;10.41;72.03;97277.00;2361872;56;27309;-77
2024/04/14 04:23:28;;;;;;;4.63;2.50;;;9.60;99.90;;;10.21;71.60;97275.00;2361279;56;26145;-76
2024/04/14 04:26:00;;;;;;;7.43;2.50;;;9.10;99.90;;;9.69;71.85;97271.00;2360972;56;26192;-75
2024/04/14 04:28:27;;;;;;;6.47;2.50;;;8.70;99.90;;;9.37;72.51;97276.00;2362359;56;26125;-75
2024/04/14 04:30:56;;;;;;;4.23;2.23;;;8.60;99.90;;;9.14;73.81;97268.00;2361282;56;26268;-76
2024/04/14 04:33:23;;;;;;;4.50;2.57;;;8.60;99.90;;;9.18;75.09;97270.00;2361230;56;26689;-76
2024/04/14 04:36:00;;;;;;;9.10;2.87;;;8.60;99.90;;;9.16;76.08;97265.00;2361243;56;26616;-77
2024/04/14 04:38:27;;;;;;;9.90;2.57;;;8.80;99.90;;;9.26;75.59;97266.00;2362279;56;26175;-75
2024/04/14 04:40:53;;;;;;;3.83;2.50;;;8.80;99.90;;;9.34;75.03;97274.00;2361601;56;26129;-75
2024/04/14 04:43:24;;;;;;;3.60;2.53;;;8.90;99.90;;;9.38;75.82;97273.00;2361322;56;26121;-75
2024/04/14 04:45:51;;;;;;;4.17;2.50;;;9.00;99.90;;;9.47;77.16;97275.00;2361196;56;26185;-77
2024/04/14 04:48:18;;;;;;;5.57;2.80;;;9.10;99.90;;;9.60;77.30;97271.00;2361667;56;26129;-75
2024/04/14 04:50:46;;;;;;;5.53;2.70;;;9.20;99.90;;;9.69;76.86;97277.00;2361771;56;26220;-77
2024/04/14 04:53:14;;;;;;;4.10;2.63;;;9.30;99.90;;;9.71;76.65;97263.00;2361601;56;26634;-75
2024/04/14 04:55:42;;;;;;;7.23;3.00;;;9.10;99.90;;;9.68;76.29;97267.00;2361256;56;26207;-76
2024/04/14 04:58:08;;;;;;;4.30;2.07;;;9.10;99.90;;;9.64;76.38;97260.00;2361829;56;26626;-76
2024/04/14 05:00:35;;;;;;;4.10;2.70;;;9.40;99.90;;;9.98;75.85;97261.00;2360996;56;26748;-76
2024/04/14 05:03:01;;;;;;;6.33;3.33;;;9.50;99.90;;;10.04;76.33;97261.00;2361843;56;26184;-78
2024/04/14 05:05:28;;;;;;;4.70;2.73;;;9.50;99.90;;;10.08;76.13;97269.00;2361339;56;26113;-77
2024/04/14 05:07:54;;;;;;;4.30;2.57;;;9.50;99.90;;;10.05;76.25;97260.00;2361435;56;26144;-76
2024/04/14 05:10:21;;;;;;;5.83;2.77;;;9.60;99.90;;;10.08;78.58;97264.00;2361774;56;26208;-76
2024/04/14 05:12:47;;;;;;;9.67;3.03;;;9.70;99.90;;;10.23;78.21;97251.00;2361274;56;26207;-78
2024/04/14 05:15:14;;;;;;;5.03;3.13;;;9.90;99.90;;;10.37;77.67;97258.00;2362024;56;26145;-76
2024/04/14 05:17:41;;;;;;;7.17;2.73;;;10.10;99.90;;;10.70;77.95;97254.00;2361406;56;26196;-75
2024/04/14 05:20:08;;;;;;;7.40;3.43;;;10.20;99.90;;;10.78;77.06;97256.00;2361937;56;26556;-76
2024/04/14 05:22:34;;;;;;;7.73;3.40;;;10.20;99.90;;;10.74;77.60;97263.00;2361492;56;26129;-75
2024/04/14 05:25:01;;;;;;;4.83;2.73;;;10.20;99.90;;;10.76;77.55;97250.00;2361736;56;26153;-75
2024/04/14 05:27:27;;;;;;;6.47;3.03;;;10.30;99.90;;;10.92;77.61;97263.00;2361388;56;26136;-77
2024/04/14 05:29:54;;;;;;;6.63;3.10;;;10.40;99.90;;;10.97;77.48;97256.00;2361215;56;26116;-75
2024/04/14 05:32:21;;;;;;;4.97;3.00;;;10.50;99.90;;;11.13;77.93;97262.00;2361487;56;26132;-78
2024/04/14 05:34:50;;;;;;;5.63;2.60;;;10.70;99.90;;;11.23;78.38;97265.00;2361442;56;26156;-78
2024/04/14 05:37:17;;;;;;;3.47;2.27;;;10.80;99.90;;;11.53;76.86;97266.00;2361714;56;26722;-77
2024/04/14 05:39:44;;;;;;;11.37;2.90;;;11.30;99.90;;;11.94;73.03;97258.00;2361191;56;26215;-79
2024/04/14 05:42:10;;;;;;;5.60;2.37;;;11.50;99.90;;;12.22;74.42;97259.00;2361874;56;26695;-75
2024/04/14 05:44:43;;;;;;;6.07;2.60;;;11.60;99.90;;;12.39;73.89;97260.00;2361361;56;26152;-76
2024/04/14 05:47:10;;;;;;;4.87;2.70;;;11.80;99.90;;;12.64;73.39;97258.00;2362127;56;26196;-76
2024/04/14 05:49:36;;;;;;;10.93;2.97;;;12.00;99.90;;;12.71;72.54;97258.00;2360910;56;26818;-76
2024/04/14 05:52:05;;;;;;;5.90;1.90;;;12.30;99.90;;;13.07;70.96;97255.00;2361708;56;26169;-80
2024/04/14 05:54:31;;;;;;;4.67;2.30;;;12.80;99.90;;;13.62;65.35;97262.00;2360929;56;26179;-79
2024/04/14 05:56:58;;;;;;;3.40;2.10;;;13.20;99.90;;;13.96;64.47;97263.00;2361665;56;26188;-77
2024/04/14 05:59:25;;;;;;;4.90;2.40;;;13.60;99.90;;;14.51;61.71;97261.00;2361164;56;26264;-77
2024/04/14 06:01:51;;;;;;;6.10;2.23;;;14.10;99.90;;;15.00;58.84;97254.00;2361434;56;26486;-78
2024/04/14 06:04:18;;;;;;;3.70;2.17;;;14.40;99.90;;;15.28;58.91;97258.00;2361602;56;26641;-77
2024/04/14 06:06:50;;;;;;;5.55;2.72;;;14.70;99.90;;;15.80;59.37;97241.00;2361223;56;26738;-76
2024/04/14 06:09:16;;;;;;;5.03;2.30;;;14.80;99.90;;;15.93;59.81;97246.00;2361619;56;26177;-78
2024/04/14 06:11:43;;;;;;;5.40;2.55;;;15.10;99.90;;;16.20;58.95;97241.00;2360855;56;26759;-79
2024/04/14 06:14:09;;;;;;;4.82;2.70;;;15.20;99.90;;;16.23;59.99;97236.00;2361728;56;26092;-75
2024/04/14 06:16:36;;;;;;;7.25;2.80;;;15.40;99.90;;;16.41;60.46;97236.00;2361132;56;26216;-77
2024/04/14 06:19:02;;;;;;;3.75;2.30;;;15.50;99.90;;;16.56;61.81;97228.00;2361653;56;26653;-78
2024/04/14 06:21:29;;;;;;;6.25;2.35;;;15.50;99.90;;;16.60;60.52;97234.00;2361092;56;26688;-77
2024/04/14 06:23:55;;;;;;;6.43;2.20;;;15.90;99.90;;;16.97;58.79;97231.00;2361337;56;26185;-76
2024/04/14 06:26:22;;;;;;;9.18;2.30;;;16.20;99.90;;;17.32;57.75;97223.00;2361433;56;26188;-78
2024/04/14 06:28:48;;;;;;;6.57;2.45;;;16.40;99.90;;;17.55;57.17;97228.00;2361117;56;26236;-75
2024/04/14 06:31:15;;;;;;;4.55;2.62;;;16.70;99.90;;;17.94;55.72;97222.00;2361542;56;26799;-79
2024/04/14 06:33:42;;;;;;;4.03;2.55;;;17.00;99.90;;;18.18;55.04;97220.00;2361444;56;26168;-79
2024/04/14 06:36:08;;;;;;;7.07;2.50;;;17.30;99.90;;;18.60;54.66;97214.00;2361866;56;26133;-78
2024/04/14 06:38:38;;;;;;;5.53;2.50;;;17.60;99.70;;;18.96;54.01;97210.00;2360936;56;26773;-79
2024/04/14 06:41:04;;;;;;;2.75;1.92;;;17.90;98.80;;;19.32;52.28;97214.00;2361916;56;26105;-77
2024/04/14 06:43:31;;;;;;;2.33;1.73;;;18.20;98.00;;;19.64;51.15;97200.00;2360645;56;26137;-78
2024/04/14 06:45:57;;;;;;;2.62;1.87;;;18.40;96.10;;;19.89;47.99;97201.00;2361074;56;26263;-78
2024/04/14 06:48:24;;;;;;;2.12;1.70;;;18.60;97.10;;;20.07;49.76;97204.00;2361029;56;26126;-77
2024/04/14 06:50:51;;;;;;;3.60;1.80;;;18.70;95.60;;;20.25;47.34;97193.00;2360854;56;26125;-76
2024/04/14 06:53:20;;;;;;;2.17;1.83;;;18.90;95.00;;;20.51;46.50;97192.00;2361720;56;26208;-78
2024/04/14 06:55:50;;;;;;;2.97;1.90;;;19.10;94.40;;;20.82;45.57;97186.00;2362231;56;26283;-77
2024/04/14 06:58:17;;;;;;;6.40;2.22;;;19.40;94.30;;;21.00;45.47;97186.00;2361946;56;26160;-78
2024/04/14 07:00:44;;;;;;;3.70;2.17;;;19.50;94.60;;;21.12;46.10;97189.00;2361930;56;26220;-77
2024/04/14 07:03:14;;;;;;;2.10;1.90;;;19.60;94.90;;;21.12;46.79;97191.00;2361785;56;26236;-79
2024/04/14 07:05:40;;;;;;;3.25;1.80;;;19.70;95.00;;;21.26;47.05;97178.00;2361242;56;27261;-76
2024/04/14 07:08:07;;;;;;;2.90;1.83;;;20.00;94.40;;;21.45;46.17;97178.00;2361317;56;26240;-77
2024/04/14 07:10:35;;;;;;;4.20;2.40;;;20.30;94.60;;;21.79;46.55;97186.00;2361293;56;26223;-78
2024/04/14 07:13:02;;;;;;;7.35;2.20;;;20.40;94.40;;;21.83;46.29;97178.00;2362137;56;26155;-76
2024/04/14 07:15:29;;;;;;;3.10;2.05;;;20.60;93.80;;;22.21;45.52;97182.00;2361490;56;26141;-79
2024/04/14 07:17:55;;;;;;;7.75;2.20;;;20.90;93.30;;;22.51;44.29;97177.00;2362041;56;26168;-78
2024/04/14 07:20:22;;;;;;;2.58;2.03;;;21.10;93.60;;;22.66;44.81;97172.00;2361528;56;26644;-76
2024/04/14 07:22:48;;;;;;;2.78;1.70;;;21.20;92.60;;;22.69;43.32;97174.00;2362081;56;26177;-78
2024/04/14 07:25:15;;;;;;;6.62;1.90;;;21.30;92.40;;;22.82;43.25;97168.00;2362132;56;26610;-77
2024/04/14 07:27:44;;;;;;;3.90;2.00;;;21.40;92.40;;;22.96;43.38;97164.00;2361545;56;26451;-76
2024/04/14 07:30:11;;;;;;;4.47;2.08;;;21.70;92.80;;;23.18;43.88;97170.00;2362259;56;26254;-79
2024/04/14 07:32:37;;;;;;;2.72;1.90;;;21.80;91.60;;;23.39;42.14;97165.00;2361728;56;26199;-78
2024/04/14 07:35:04;;;;;;;5.15;2.00;;;22.10;91.50;;;23.71;41.76;97155.00;2362680;56;26125;-77
2024/04/14 07:37:31;;;;;;;3.37;2.12;;;22.20;92.00;;;23.71;42.79;97158.00;2361941;56;26188;-77
2024/04/14 07:39:57;;;;;;;4.18;1.52;;;22.10;91.80;;;23.57;42.71;97155.00;2362362;56;27263;-79
2024/04/14 07:42:24;;;;;;;3.22;2.00;;;22.00;92.40;;;23.44;43.61;97146.00;2361945;56;26101;-77
2024/04/14 07:44:50;;;;;;;3.28;2.08;;;21.70;92.90;;;23.17;45.01;97146.00;2361632;56;26267;-80
2024/04/14 07:47:17;;;;;;;3.42;2.10;;;21.70;92.70;;;23.14;44.68;97146.00;2362084;56;26981;-79
2024/04/14 07:49:44;;;;;;;2.97;2.00;;;21.80;92.60;;;23.16;44.57;97147.00;2361554;56;26695;-78
2024/04/14 07:52:10;;;;;;;3.70;2.37;;;21.80;93.10;;;23.29;45.28;97143.00;2362160;56;26173;-79
2024/04/14 07:54:37;;;;;;;5.82;2.72;;;22.00;92.80;;;23.48;44.08;97135.00;2361535;56;26149;-77
2024/04/14 07:57:05;;;;;;;5.30;2.90;;;22.20;92.50;;;23.75;43.94;97132.00;2362524;56;26201;-79
2024/04/14 07:59:35;;;;;;;4.05;2.60;;;22.50;92.10;;;24.02;43.34;97134.00;2361926;56;26149;-76
2024/04/14 08:02:02;;;;;;;4.53;2.30;;;22.60;92.20;;;23.97;43.86;97126.00;2362451;56;26686;-77
2024/04/14 08:04:29;;;;;;;4.62;2.15;;;22.70;92.00;;;24.24;42.85;97130.00;2362690;56;26228;-77
2024/04/14 08:06:55;;;;;;;4.65;2.35;;;22.90;91.10;;;24.52;41.78;97131.00;2362378;56;26201;-79
2024/04/14 08:09:22;;;;;;;6.97;2.67;;;23.00;91.00;;;24.46;41.90;97132.00;2361952;56;26014;-77
2024/04/14 08:11:48;;;;;;;3.58;2.22;;;23.20;91.50;;;24.67;42.37;97132.00;2361961;56;26125;-77
2024/04/14 08:14:15;;;;;;;6.28;2.45;;;23.30;89.50;;;24.87;39.73;97132.00;2362377;56;26176;-79
2024/04/14 08:16:41;;;;;;;5.90;2.80;;;23.60;91.40;;;25.31;42.02;97138.00;2361622;56;26209;-76
2024/04/14 08:19:08;;;;;;;4.32;2.50;;;23.90;91.00;;;25.46;41.49;97132.00;2362460;56;26208;-77
2024/04/14 08:21:35;;;;;;;3.92;2.70;;;23.90;90.50;;;25.40;40.82;97128.00;2361677;56;26247;-79
2024/04/14 08:24:06;;;;;;;8.98;2.55;;;23.80;90.20;;;25.28;40.66;97126.00;2362276;56;26708;-78
2024/04/14 08:26:33;;;;;;;4.45;2.45;;;23.90;90.20;;;25.39;40.60;97132.00;2361719;56;26149;-79
2024/04/14 08:28:59;;;;;;;4.18;2.60;;;24.10;89.50;;;25.66;39.77;97120.00;2362083;56;26796;-78
2024/04/14 08:31:26;;;;;;;5.70;2.62;;;24.10;89.30;;;25.58;39.94;97118.00;2361367;56;26221;-79
2024/04/14 08:33:52;;;;;;;3.60;2.50;;;24.20;88.40;;;25.74;39.40;97119.00;2361723;56;26717;-77
2024/04/14 08:36:19;;;;;;;3.62;2.42;;;24.50;88.40;;;26.09;39.14;97130.00;2361894;56;26097;-79
2024/04/14 08:38:46;;;;;;;3.92;2.65;;;24.60;87.20;;;26.31;38.35;97119.00;2361741;56;26736;-78
2024/04/14 08:41:19;;;;;;;5.20;2.78;;;24.90;86.80;;;26.41;38.22;97118.00;2362314;56;26209;-77
2024/04/14 08:43:46;;;;;;;3.72;2.90;;;25.00;86.10;;;26.69;37.75;97115.00;2361779;56;26840;-76
2024/04/14 08:46:16;;;;;;;4.35;2.53;;;25.30;85.70;;;26.91;37.38;97117.00;2362148;56;26169;-76
2024/04/14 08:48:46;;;;;;;3.20;2.70;;;25.40;85.50;;;27.02;37.30;97104.00;2361771;56;26283;-78
2024/04/14 08:51:17;;;;;;;5.65;2.80;;;25.50;86.20;;;27.11;37.86;97107.00;2362183;56;26085;-75
2024/04/14 08:53:45;;;;;;;4.78;2.60;;;25.80;86.40;;;27.49;37.69;97101.00;2362650;56;26224;-77
2024/04/14 08:56:14;;;;;;;3.17;2.62;;;25.90;86.90;;;27.63;38.06;97097.00;2362289;56;26220;-76
2024/04/14 08:58:45;;;;;;;6.20;2.85;;;26.10;86.90;;;27.65;38.20;97100.00;2361874;56;26121;-77
2024/04/14 09:01:14;;;;;;;5.55;2.90;;;26.20;86.80;;;27.78;38.15;97093.00;2362443;56;26105;-76
2024/04/14 09:03:40;;;;;;;4.68;2.45;;;26.30;87.10;;;27.89;38.29;97094.00;2361622;56;26160;-75
2024/04/14 09:06:11;;;;;;;5.37;3.15;;;26.40;85.60;;;28.01;37.31;97088.00;2362357;56;26677;-76
2024/04/14 09:08:37;;;;;;;3.28;2.55;;;26.70;85.50;;;28.42;37.00;97089.00;2361557;56;26128;-75
2024/04/14 09:11:06;;;;;;;6.62;2.53;;;26.90;82.70;;;28.62;35.28;97083.00;2362363;56;26196;-78
2024/04/14 09:13:33;;;;;;;4.47;2.70;;;26.90;83.80;;;28.63;36.08;97084.00;2361250;56;26148;-76
2024/04/14 09:16:01;;;;;;;3.37;2.37;;;27.00;84.20;;;28.74;36.38;97085.00;2362376;56;26651;-75
2024/04/14 09:18:28;;;;;;;4.20;2.70;;;27.10;79.70;;;28.91;33.44;97085.00;2361549;56;26101;-78
2024/04/14 09:20:54;;;;;;;8.82;2.40;;;27.20;78.80;;;28.95;33.18;97088.00;2362341;56;26749;-76
2024/04/14 09:23:22;;;;;;;5.10;2.45;;;27.30;76.40;;;29.00;31.92;97081.00;2361920;56;26121;-76
2024/04/14 09:25:50;;;;;;;3.08;2.55;;;27.20;78.80;;;28.86;33.53;97076.00;2362260;56;26995;-76
2024/04/14 09:28:17;;;;;;;2.70;2.33;;;27.30;79.00;;;29.03;33.52;97072.00;2362033;56;26076;-75
2024/04/14 09:30:43;;;;;;;6.10;2.92;;;27.30;78.00;;;29.16;33.02;97074.00;2362105;56;26147;-77
2024/04/14 09:33:12;;;;;;;6.50;2.80;;;27.50;81.20;;;29.36;34.85;97070.00;2362685;56;26102;-77
2024/04/14 09:35:39;;;;;;;3.50;2.70;;;27.70;79.90;;;29.61;33.90;97064.00;2362506;56;27180;-77
2024/04/14 09:38:08;;;;;;;2.83;2.28;;;28.00;77.00;;;29.83;32.17;97069.00;2363170;56;26117;-77
2024/04/14 09:40:35;;;;;;;3.80;2.67;;;28.00;73.90;;;29.77;30.72;97066.00;2361679;56;26152;-78
2024/04/14 09:43:02;;;;;;;4.30;2.30;;;27.90;73.80;;;29.81;30.77;97058.00;2362986;56;26121;-78
2024/04/14 09:45:31;;;;;;;2.87;2.40;;;28.00;73.90;;;29.81;30.84;97067.00;2361976;56;26184;-76
2024/04/14 09:48:01;;;;;;;3.25;2.30;;;28.20;73.20;;;29.99;30.42;97061.00;2362395;56;26370;-77
2024/04/14 09:50:35;;;;;;;5.60;2.58;;;28.20;72.60;;;30.12;30.15;97065.00;2362540;56;26120;-76
2024/04/14 09:53:06;;;;;;;4.95;2.70;;;28.20;74.00;;;29.99;30.84;97055.00;2362099;56;26164;-76
2024/04/14 09:55:32;;;;;;;4.00;2.87;;;28.20;74.20;;;30.09;31.16;97055.00;2362478;56;26156;-76
2024/04/14 09:57:59;;;;;;;3.10;2.42;;;28.20;74.20;;;30.17;31.07;97057.00;2361953;56;26660;-75
2024/04/14 10:00:26;;;;;;;5.07;3.05;;;28.30;74.30;;;30.28;31.17;97051.00;2361245;56;26203;-76
2024/04/14 10:03:06;;;;;;;3.58;2.62;;;28.20;73.80;;;30.09;31.17;97055.00;2361799;56;26189;-77
2024/04/14 10:05:33;;;;;;;5.60;2.72;;;28.20;74.70;;;29.86;32.01;97051.00;2361506;56;26181;-78
2024/04/14 10:08:00;;;;;;;5.50;2.58;;;28.20;71.10;;;30.01;29.86;97044.00;2362109;56;26189;-77
2024/04/14 10:10:28;;;;;;;4.03;2.25;;;28.30;69.70;;;29.94;29.10;97040.00;2361371;56;26117;-76
2024/04/14 10:12:56;;;;;;;9.27;2.12;;;28.30;66.20;;;29.98;27.36;97040.00;2361802;56;26260;-78
2024/04/14 10:15:25;;;;;;;3.40;1.92;;;28.30;64.70;;;30.11;26.59;97036.00;2361701;56;26141;-77
2024/04/14 10:18:17;;;;;;;5.37;1.98;;;28.30;64.20;;;30.16;26.44;97030.00;2361387;56;26112;-77
2024/04/14 10:20:45;;;;;;;3.53;2.33;;;28.50;64.40;;;30.39;26.51;97030.00;2361577;56;26796;-78
2024/04/14 10:23:22;;;;;;;2.70;1.77;;;28.50;61.50;;;30.41;25.20;97034.00;2361685;56;26111;-77